Private Wetterstation Sandau
Wetterdaten: Sonntag, 29.07.2012
Datum Zeit Temp. A. Feuchte A. Luftdruck Regen Wind Richtung Richtung Taupunkt Windchill
29.07.2012 00:01 19,4 C 77 % 1010,4 hPa 0,0 l/m 5,0 km/h (1 Bft) N-NO 22 15,3 C 19,4 C
29.07.2012 00:06 19,4 C 77 % 1010,3 hPa 0,0 l/m 1,1 km/h (1 Bft) N-NO 22 15,3 C 19,4 C
29.07.2012 00:11 19,3 C 77 % 1010,3 hPa 0,0 l/m 2,2 km/h (1 Bft) N-NO 22 15,2 C 19,3 C
29.07.2012 00:16 19,3 C 77 % 1010,3 hPa 0,0 l/m 2,5 km/h (1 Bft) NO 45 15,2 C 19,3 C
29.07.2012 00:21 19,3 C 77 % 1010,2 hPa 0,0 l/m 0,0 km/h (0 Bft) N-NO 22 15,2 C 19,3 C
29.07.2012 00:26 19,3 C 77 % 1010,2 hPa 0,0 l/m 0,0 km/h (0 Bft) N-NO 22 15,2 C 19,3 C
29.07.2012 00:31 19,2 C 77 % 1010,2 hPa 0,0 l/m 0,0 km/h (0 Bft) NO 45 15,1 C 19,2 C
29.07.2012 00:36 19,2 C 78 % 1010,1 hPa 0,0 l/m 0,0 km/h (0 Bft) NO 45 15,3 C 19,2 C
29.07.2012 00:41 19,2 C 78 % 1010,2 hPa 0,0 l/m 0,0 km/h (0 Bft) N-NO 22 15,3 C 19,2 C
29.07.2012 00:46 19,2 C 78 % 1010,3 hPa 0,0 l/m 3,2 km/h (1 Bft) N-NO 22 15,3 C 19,2 C
29.07.2012 00:51 19,1 C 78 % 1010,3 hPa 0,0 l/m 0,0 km/h (0 Bft) N-NW 337 15,2 C 19,1 C
29.07.2012 00:56 19,1 C 78 % 1010,2 hPa 0,0 l/m 0,0 km/h (0 Bft) N 360 15,2 C 19,1 C
29.07.2012 01:01 19,1 C 78 % 1010,4 hPa 0,0 l/m 0,0 km/h (0 Bft) N 360 15,2 C 19,1 C
29.07.2012 01:06 19,0 C 79 % 1010,2 hPa 0,0 l/m 2,5 km/h (1 Bft) N-NO 22 15,3 C 19,0 C
29.07.2012 01:11 19,0 C 79 % 1010,2 hPa 0,0 l/m 1,8 km/h (1 Bft) N-NO 22 15,3 C 19,0 C
29.07.2012 01:16 18,9 C 80 % 1010,2 hPa 0,0 l/m 1,8 km/h (1 Bft) N-NO 22 15,4 C 18,9 C
29.07.2012 01:21 18,9 C 80 % 1010,2 hPa 0,0 l/m 0,0 km/h (0 Bft) N-NO 22 15,4 C 18,9 C
29.07.2012 01:26 18,9 C 80 % 1010,1 hPa 0,0 l/m 2,2 km/h (1 Bft) N-NO 22 15,4 C 18,9 C
29.07.2012 01:31 18,9 C 80 % 1010,2 hPa 0,0 l/m 2,5 km/h (1 Bft) N 360 15,4 C 18,9 C
29.07.2012 01:36 18,9 C 80 % 1010,2 hPa 0,0 l/m 3,6 km/h (1 Bft) N-NO 22 15,4 C 18,9 C
29.07.2012 01:41 18,8 C 80 % 1010,1 hPa 0,0 l/m 0,0 km/h (0 Bft) N-NW 337 15,3 C 18,8 C
29.07.2012 01:46 18,8 C 80 % 1010,0 hPa 0,0 l/m 4,3 km/h (1 Bft) N 360 15,3 C 18,8 C
29.07.2012 01:51 18,7 C 80 % 1010,1 hPa 0,0 l/m 5,0 km/h (1 Bft) N 360 15,2 C 18,7 C
29.07.2012 01:56 18,7 C 80 % 1010,0 hPa 0,0 l/m 4,0 km/h (1 Bft) N-NO 22 15,2 C 18,7 C
29.07.2012 02:01 18,6 C 80 % 1010,0 hPa 0,0 l/m 4,0 km/h (1 Bft) N 360 15,1 C 18,6 C
29.07.2012 02:06 18,6 C 81 % 1010,0 hPa 0,0 l/m 9,7 km/h (2 Bft) N 360 15,3 C 18,6 C
29.07.2012 02:11 18,5 C 81 % 1010,0 hPa 0,0 l/m 8,3 km/h (2 Bft) N 360 15,2 C 18,5 C
29.07.2012 02:16 18,5 C 81 % 1009,9 hPa 0,0 l/m 2,5 km/h (1 Bft) NW 315 15,2 C 18,5 C
29.07.2012 02:21 18,4 C 81 % 1009,9 hPa 0,0 l/m 4,0 km/h (1 Bft) N-NO 22 15,1 C 18,4 C
29.07.2012 02:26 18,4 C 81 % 1009,9 hPa 0,0 l/m 0,0 km/h (0 Bft) N 360 15,1 C 18,4 C
29.07.2012 02:31 18,4 C 81 % 1009,8 hPa 0,0 l/m 2,9 km/h (1 Bft) N-NO 22 15,1 C 18,4 C
29.07.2012 02:36 18,4 C 81 % 1009,7 hPa 0,0 l/m 2,5 km/h (1 Bft) N 360 15,1 C 18,4 C
29.07.2012 02:41 18,4 C 81 % 1009,6 hPa 0,0 l/m 5,8 km/h (2 Bft) N 360 15,1 C 18,4 C
29.07.2012 02:46 18,4 C 81 % 1009,6 hPa 0,0 l/m 5,0 km/h (1 Bft) N-NO 22 15,1 C 18,4 C
29.07.2012 02:51 18,3 C 82 % 1009,8 hPa 0,0 l/m 4,7 km/h (1 Bft) N-NO 22 15,2 C 18,3 C
29.07.2012 02:56 18,3 C 82 % 1009,6 hPa 0,0 l/m 2,2 km/h (1 Bft) N 360 15,2 C 18,3 C
29.07.2012 03:01 18,3 C 82 % 1009,5 hPa 0,0 l/m 2,5 km/h (1 Bft) N 360 15,2 C 18,3 C
29.07.2012 03:06 18,4 C 82 % 1009,6 hPa 0,0 l/m 2,2 km/h (1 Bft) N-NO 22 15,3 C 18,4 C
29.07.2012 03:11 18,4 C 82 % 1009,6 hPa 0,0 l/m 2,2 km/h (1 Bft) N-NO 22 15,3 C 18,4 C
29.07.2012 03:16 18,4 C 82 % 1009,6 hPa 0,0 l/m 0,0 km/h (0 Bft) N-NO 22 15,3 C 18,4 C
29.07.2012 03:21 18,4 C 82 % 1009,7 hPa 0,0 l/m 1,4 km/h (1 Bft) N 360 15,3 C 18,4 C
29.07.2012 03:26 18,3 C 82 % 1009,5 hPa 0,0 l/m 1,4 km/h (1 Bft) N-NO 22 15,2 C 18,3 C
29.07.2012 03:31 18,3 C 82 % 1009,7 hPa 0,0 l/m 0,0 km/h (0 Bft) N-NO 22 15,2 C 18,3 C
29.07.2012 03:36 18,4 C 82 % 1009,8 hPa 0,0 l/m 3,6 km/h (1 Bft) O-NO 67 15,3 C 18,4 C
29.07.2012 03:41 18,4 C 82 % 1009,5 hPa 0,0 l/m 3,6 km/h (1 Bft) O-NO 67 15,3 C 18,4 C
29.07.2012 03:46 18,4 C 82 % 1009,5 hPa 0,0 l/m 5,4 km/h (1 Bft) NO 45 15,3 C 18,4 C
29.07.2012 03:51 18,4 C 82 % 1009,5 hPa 0,0 l/m 5,4 km/h (1 Bft) O-NO 67 15,3 C 18,4 C
29.07.2012 03:56 18,4 C 82 % 1009,5 hPa 0,0 l/m 5,8 km/h (2 Bft) O-NO 67 15,3 C 18,4 C
29.07.2012 04:01 18,4 C 82 % 1009,5 hPa 0,0 l/m 3,6 km/h (1 Bft) NO 45 15,3 C 18,4 C
29.07.2012 04:06 18,4 C 82 % 1009,6 hPa 0,0 l/m 4,7 km/h (1 Bft) NO 45 15,3 C 18,4 C
29.07.2012 04:11 18,4 C 82 % 1009,7 hPa 0,0 l/m 2,5 km/h (1 Bft) O-NO 67 15,3 C 18,4 C
29.07.2012 04:16 18,5 C 82 % 1009,7 hPa 0,0 l/m 0,0 km/h (0 Bft) O-NO 67 15,4 C 18,5 C
29.07.2012 04:21 18,5 C 82 % 1009,6 hPa 0,0 l/m 4,0 km/h (1 Bft) NO 45 15,4 C 18,5 C
29.07.2012 04:26 18,4 C 82 % 1009,6 hPa 0,0 l/m 6,5 km/h (2 Bft) O-NO 67 15,3 C 18,4 C
29.07.2012 04:31 18,4 C 82 % 1009,8 hPa 0,0 l/m 5,8 km/h (2 Bft) NO 45 15,3 C 18,4 C
29.07.2012 04:36 18,4 C 82 % 1009,8 hPa 0,0 l/m 3,2 km/h (1 Bft) NO 45 15,3 C 18,4 C
29.07.2012 04:41 18,4 C 82 % 1009,8 hPa 0,0 l/m 7,6 km/h (2 Bft) O-NO 67 15,3 C 18,4 C
29.07.2012 04:46 18,4 C 83 % 1009,8 hPa 0,0 l/m 2,9 km/h (1 Bft) O-NO 67 15,5 C 18,4 C
29.07.2012 04:51 18,4 C 83 % 1009,8 hPa 0,0 l/m 0,0 km/h (0 Bft) NO 45 15,5 C 18,4 C
29.07.2012 04:56 18,4 C 83 % 1009,8 hPa 0,0 l/m 4,7 km/h (1 Bft) O-NO 67 15,5 C 18,4 C
29.07.2012 05:01 18,4 C 83 % 1009,7 hPa 0,0 l/m 1,8 km/h (1 Bft) O 90 15,5 C 18,4 C
29.07.2012 05:06 18,4 C 83 % 1009,6 hPa 0,0 l/m 4,7 km/h (1 Bft) O-SO 112 15,5 C 18,4 C
29.07.2012 05:11 18,4 C 83 % 1009,6 hPa 0,0 l/m 3,2 km/h (1 Bft) N-NO 22 15,5 C 18,4 C
29.07.2012 05:16 18,3 C 84 % 1009,6 hPa 0,5 l/m 2,5 km/h (1 Bft) NO 45 15,5 C 18,3 C
29.07.2012 05:21 18,3 C 84 % 1009,5 hPa 0,0 l/m 0,0 km/h (0 Bft) NO 45 15,5 C 18,3 C
29.07.2012 05:26 18,2 C 85 % 1009,6 hPa 0,0 l/m 2,9 km/h (1 Bft) NO 45 15,6 C 18,2 C
29.07.2012 05:31 18,1 C 85 % 1009,6 hPa 0,5 l/m 0,0 km/h (0 Bft) O-SO 112 15,5 C 18,1 C
29.07.2012 05:36 17,9 C 85 % 1009,6 hPa 0,0 l/m 3,6 km/h (1 Bft) NO 45 15,3 C 17,9 C
29.07.2012 05:41 17,6 C 84 % 1009,6 hPa 0,0 l/m 3,6 km/h (1 Bft) O-NO 67 14,9 C 17,6 C
29.07.2012 05:46 17,4 C 84 % 1009,6 hPa 0,0 l/m 2,5 km/h (1 Bft) NO 45 14,7 C 17,4 C
29.07.2012 05:51 17,3 C 85 % 1009,7 hPa 0,0 l/m 3,6 km/h (1 Bft) NO 45 14,8 C 17,3 C
29.07.2012 05:56 17,1 C 86 % 1009,8 hPa 0,0 l/m 2,9 km/h (1 Bft) O-NO 67 14,7 C 17,1 C
29.07.2012 06:01 17,1 C 86 % 1009,9 hPa 0,0 l/m 4,7 km/h (1 Bft) O 90 14,7 C 17,1 C
29.07.2012 06:06 17,0 C 87 % 1009,9 hPa 0,0 l/m 6,1 km/h (2 Bft) O-SO 112 14,8 C 17,0 C
29.07.2012 06:11 16,9 C 87 % 1009,9 hPa 0,5 l/m 1,4 km/h (1 Bft) O-NO 67 14,7 C 16,9 C
29.07.2012 06:16 16,9 C 88 % 1009,8 hPa 0,0 l/m 9,7 km/h (2 Bft) NO 45 14,9 C 16,9 C
29.07.2012 06:21 16,8 C 87 % 1009,7 hPa 0,0 l/m 13,0 km/h (3 Bft) N-NO 22 14,6 C 16,8 C
29.07.2012 06:26 16,5 C 86 % 1009,8 hPa 0,0 l/m 13,0 km/h (3 Bft) O-NO 67 14,1 C 16,5 C
29.07.2012 06:31 16,3 C 85 % 1009,6 hPa 0,0 l/m 6,1 km/h (2 Bft) O-NO 67 13,8 C 16,3 C
29.07.2012 06:36 16,1 C 85 % 1009,8 hPa 0,0 l/m 4,7 km/h (1 Bft) O-NO 67 13,6 C 16,1 C
29.07.2012 06:41 15,9 C 84 % 1009,8 hPa 0,0 l/m 6,1 km/h (2 Bft) N-NO 22 13,2 C 15,9 C
29.07.2012 06:46 15,9 C 84 % 1009,9 hPa 0,0 l/m 2,5 km/h (1 Bft) O-NO 67 13,2 C 15,9 C
29.07.2012 06:51 15,9 C 84 % 1009,9 hPa 0,0 l/m 2,2 km/h (1 Bft) O-NO 67 13,2 C 15,9 C
29.07.2012 06:56 15,9 C 85 % 1009,9 hPa 0,0 l/m 2,5 km/h (1 Bft) O-NO 67 13,4 C 15,9 C
29.07.2012 07:01 15,9 C 86 % 1009,8 hPa 0,0 l/m 2,5 km/h (1 Bft) O-NO 67 13,6 C 15,9 C
29.07.2012 07:06 15,9 C 86 % 1009,9 hPa 0,0 l/m 5,8 km/h (2 Bft) O-SO 112 13,6 C 15,9 C
29.07.2012 07:11 15,9 C 86 % 1010,0 hPa 0,0 l/m 4,0 km/h (1 Bft) O-NO 67 13,6 C 15,9 C
29.07.2012 07:16 16,0 C 86 % 1010,0 hPa 0,0 l/m 2,5 km/h (1 Bft) O-NO 67 13,7 C 16,0 C
29.07.2012 07:21 16,1 C 86 % 1010,0 hPa 0,0 l/m 8,3 km/h (2 Bft) NO 45 13,8 C 16,1 C
29.07.2012 07:26 16,1 C 87 % 1009,9 hPa 0,0 l/m 5,8 km/h (2 Bft) O-NO 67 13,9 C 16,1 C
29.07.2012 07:31 16,1 C 87 % 1009,8 hPa 0,0 l/m 2,2 km/h (1 Bft) NO 45 13,9 C 16,1 C
29.07.2012 07:36 16,1 C 87 % 1009,8 hPa 0,0 l/m 7,9 km/h (2 Bft) O-NO 67 13,9 C 16,1 C
29.07.2012 07:41 16,1 C 87 % 1009,8 hPa 0,0 l/m 6,8 km/h (2 Bft) O-NO 67 13,9 C 16,1 C
29.07.2012 07:46 16,1 C 87 % 1009,7 hPa 0,0 l/m 6,1 km/h (2 Bft) O 90 13,9 C 16,1 C
29.07.2012 07:51 16,1 C 88 % 1009,8 hPa 0,0 l/m 1,4 km/h (1 Bft) NO 45 14,1 C 16,1 C
29.07.2012 07:56 16,2 C 88 % 1009,8 hPa 0,0 l/m 0,0 km/h (0 Bft) O-NO 67 14,2 C 16,2 C
29.07.2012 08:01 16,3 C 88 % 1009,8 hPa 0,0 l/m 4,7 km/h (1 Bft) NO 45 14,3 C 16,3 C
29.07.2012 08:06 16,3 C 87 % 1009,7 hPa 0,0 l/m 2,2 km/h (1 Bft) O-NO 67 14,1 C 16,3 C
29.07.2012 08:11 16,3 C 87 % 1009,6 hPa 0,0 l/m 2,5 km/h (1 Bft) O-NO 67 14,1 C 16,3 C
29.07.2012 08:16 16,2 C 87 % 1009,5 hPa 0,0 l/m 2,2 km/h (1 Bft) O-NO 67 14,0 C 16,2 C
29.07.2012 08:21 16,2 C 87 % 1009,5 hPa 0,0 l/m 3,2 km/h (1 Bft) NO 45 14,0 C 16,2 C
29.07.2012 08:26 16,3 C 87 % 1009,6 hPa 0,0 l/m 2,9 km/h (1 Bft) O-NO 67 14,1 C 16,3 C
29.07.2012 08:31 16,3 C 86 % 1009,6 hPa 0,0 l/m 2,9 km/h (1 Bft) O-NO 67 14,0 C 16,3 C
29.07.2012 08:36 16,3 C 86 % 1009,6 hPa 0,0 l/m 0,0 km/h (0 Bft) O-NO 67 14,0 C 16,3 C
29.07.2012 08:41 16,4 C 86 % 1009,5 hPa 0,0 l/m 0,0 km/h (0 Bft) O-NO 67 14,1 C 16,4 C
29.07.2012 08:46 16,5 C 87 % 1009,4 hPa 0,0 l/m 1,4 km/h (1 Bft) O-NO 67 14,3 C 16,5 C
29.07.2012 08:51 16,6 C 87 % 1009,3 hPa 0,0 l/m 4,3 km/h (1 Bft) O-NO 67 14,4 C 16,6 C
29.07.2012 08:56 16,7 C 87 % 1009,2 hPa 0,0 l/m 5,8 km/h (2 Bft) NO 45 14,5 C 16,7 C
29.07.2012 09:01 16,8 C 87 % 1009,3 hPa 0,0 l/m 2,5 km/h (1 Bft) O-NO 67 14,6 C 16,8 C
29.07.2012 09:06 16,8 C 86 % 1009,3 hPa 0,0 l/m 1,8 km/h (1 Bft) O-NO 67 14,4 C 16,8 C
29.07.2012 09:11 16,9 C 86 % 1009,4 hPa 0,0 l/m 2,9 km/h (1 Bft) NO 45 14,5 C 16,9 C
29.07.2012 09:16 16,9 C 86 % 1009,4 hPa 0,0 l/m 3,2 km/h (1 Bft) NO 45 14,5 C 16,9 C
29.07.2012 09:21 16,9 C 86 % 1009,3 hPa 0,0 l/m 3,6 km/h (1 Bft) O-NO 67 14,5 C 16,9 C
29.07.2012 09:26 17,0 C 86 % 1009,3 hPa 0,0 l/m 0,0 km/h (0 Bft) O-NO 67 14,6 C 17,0 C
29.07.2012 09:31 17,1 C 86 % 1009,4 hPa 0,0 l/m 2,2 km/h (1 Bft) O-NO 67 14,7 C 17,1 C
29.07.2012 09:36 17,2 C 86 % 1009,3 hPa 0,0 l/m 1,8 km/h (1 Bft) O-NO 67 14,8 C 17,2 C
29.07.2012 09:41 17,3 C 86 % 1009,4 hPa 0,0 l/m 2,2 km/h (1 Bft) O-NO 67 14,9 C 17,3 C
29.07.2012 09:46 17,3 C 86 % 1009,3 hPa 0,0 l/m 3,6 km/h (1 Bft) O-NO 67 14,9 C 17,3 C
29.07.2012 09:51 17,4 C 86 % 1009,3 hPa 0,0 l/m 0,0 km/h (0 Bft) O-NO 67 15,0 C 17,4 C
29.07.2012 09:56 17,6 C 86 % 1009,2 hPa 0,0 l/m 4,3 km/h (1 Bft) O-NO 67 15,2 C 17,6 C
29.07.2012 10:01 17,7 C 85 % 1009,2 hPa 0,0 l/m 4,0 km/h (1 Bft) O-NO 67 15,1 C 17,7 C
29.07.2012 10:06 17,9 C 84 % 1009,3 hPa 0,0 l/m 10,8 km/h (2 Bft) NO 45 15,2 C 17,9 C
29.07.2012 10:11 18,1 C 84 % 1009,4 hPa 0,0 l/m 4,7 km/h (1 Bft) O-NO 67 15,4 C 18,1 C
29.07.2012 10:16 18,3 C 83 % 1009,4 hPa 0,0 l/m 3,2 km/h (1 Bft) NO 45 15,4 C 18,3 C
29.07.2012 10:21 18,4 C 83 % 1009,5 hPa 0,0 l/m 2,2 km/h (1 Bft) O-NO 67 15,5 C 18,4 C
29.07.2012 10:26 18,5 C 82 % 1009,7 hPa 0,0 l/m 4,0 km/h (1 Bft) O-NO 67 15,4 C 18,5 C
29.07.2012 10:31 18,7 C 82 % 1009,7 hPa 0,0 l/m 0,0 km/h (0 Bft) O-NO 67 15,6 C 18,7 C
29.07.2012 10:36 18,9 C 82 % 1009,7 hPa 0,0 l/m 2,9 km/h (1 Bft) O-NO 67 15,8 C 18,9 C
29.07.2012 10:41 19,1 C 81 % 1009,7 hPa 0,0 l/m 5,8 km/h (2 Bft) NO 45 15,8 C 19,1 C
29.07.2012 10:46 19,2 C 80 % 1009,6 hPa 0,0 l/m 2,9 km/h (1 Bft) NO 45 15,7 C 19,2 C
29.07.2012 10:51 19,2 C 80 % 1009,5 hPa 0,0 l/m 2,9 km/h (1 Bft) O-NO 67 15,7 C 19,2 C
29.07.2012 10:56 19,2 C 80 % 1009,7 hPa 0,0 l/m 4,3 km/h (1 Bft) O-NO 67 15,7 C 19,2 C
29.07.2012 11:01 19,1 C 80 % 1009,7 hPa 0,0 l/m 1,4 km/h (1 Bft) O-NO 67 15,6 C 19,1 C
29.07.2012 11:06 19,3 C 80 % 1009,7 hPa 0,0 l/m 6,1 km/h (2 Bft) O-SO 112 15,8 C 19,3 C
29.07.2012 11:11 19,5 C 80 % 1009,8 hPa 0,0 l/m 1,1 km/h (1 Bft) NO 45 16,0 C 19,5 C
29.07.2012 11:16 19,6 C 80 % 1009,6 hPa 0,0 l/m 2,5 km/h (1 Bft) NO 45 16,1 C 19,6 C
29.07.2012 11:21 19,9 C 80 % 1009,6 hPa 0,0 l/m 0,0 km/h (0 Bft) O 90 16,3 C 19,9 C
29.07.2012 11:26 20,3 C 79 % 1009,7 hPa 0,0 l/m 1,8 km/h (1 Bft) S-SO 157 16,5 C 20,3 C
29.07.2012 11:31 20,4 C 78 % 1009,6 hPa 0,0 l/m 4,0 km/h (1 Bft) SO 135 16,4 C 20,4 C
29.07.2012 11:36 20,5 C 77 % 1009,6 hPa 0,0 l/m 3,6 km/h (1 Bft) S-SW 202 16,3 C 20,5 C
29.07.2012 11:41 20,8 C 77 % 1009,6 hPa 0,0 l/m 1,4 km/h (1 Bft) SO 135 16,6 C 20,8 C
29.07.2012 11:46 20,8 C 77 % 1009,6 hPa 0,0 l/m 2,9 km/h (1 Bft) SO 135 16,6 C 20,8 C
29.07.2012 11:51 20,6 C 77 % 1009,5 hPa 0,0 l/m 2,5 km/h (1 Bft) SO 135 16,4 C 20,6 C
29.07.2012 11:56 20,5 C 77 % 1009,7 hPa 0,0 l/m 0,0 km/h (0 Bft) SO 135 16,3 C 20,5 C
29.07.2012 12:01 20,4 C 77 % 1009,7 hPa 0,0 l/m 0,0 km/h (0 Bft) S-SW 202 16,2 C 20,4 C
29.07.2012 12:06 20,4 C 78 % 1009,8 hPa 0,0 l/m 0,0 km/h (0 Bft) S-SW 202 16,4 C 20,4 C
29.07.2012 12:11 20,4 C 78 % 1009,8 hPa 0,0 l/m 1,4 km/h (1 Bft) S 180 16,4 C 20,4 C
29.07.2012 12:16 20,4 C 78 % 1009,8 hPa 0,0 l/m 3,6 km/h (1 Bft) S-SW 202 16,4 C 20,4 C
29.07.2012 12:21 20,4 C 78 % 1009,6 hPa 0,0 l/m 1,8 km/h (1 Bft) S-SO 157 16,4 C 20,4 C
29.07.2012 12:26 20,4 C 78 % 1009,6 hPa 0,0 l/m 0,0 km/h (0 Bft) S-SO 157 16,4 C 20,4 C
29.07.2012 12:31 20,4 C 79 % 1009,7 hPa 0,0 l/m 2,5 km/h (1 Bft) SW 225 16,6 C 20,4 C
29.07.2012 12:36 20,4 C 79 % 1009,5 hPa 0,0 l/m 3,2 km/h (1 Bft) SW 225 16,6 C 20,4 C
29.07.2012 12:41 20,4 C 79 % 1009,5 hPa 0,0 l/m 1,8 km/h (1 Bft) S-SW 202 16,6 C 20,4 C
29.07.2012 12:46 20,3 C 80 % 1009,5 hPa 0,0 l/m 2,9 km/h (1 Bft) S-SW 202 16,7 C 20,3 C
29.07.2012 12:51 20,3 C 80 % 1009,4 hPa 0,0 l/m 0,0 km/h (0 Bft) SW 225 16,7 C 20,3 C
29.07.2012 12:56 20,4 C 80 % 1009,4 hPa 0,0 l/m 2,5 km/h (1 Bft) SW 225 16,8 C 20,4 C
29.07.2012 13:01 20,6 C 80 % 1009,4 hPa 0,0 l/m 0,0 km/h (0 Bft) S 180 17,0 C 20,6 C
29.07.2012 13:06 20,9 C 79 % 1009,5 hPa 0,0 l/m 0,0 km/h (0 Bft) S-SW 202 17,1 C 20,9 C
29.07.2012 13:11 21,2 C 78 % 1009,5 hPa 0,0 l/m 0,0 km/h (0 Bft) NW 315 17,2 C 21,2 C
29.07.2012 13:16 21,3 C 78 % 1009,6 hPa 0,0 l/m 0,0 km/h (0 Bft) S-SW 202 17,3 C 21,3 C
29.07.2012 13:21 21,4 C 78 % 1009,7 hPa 0,0 l/m 0,0 km/h (0 Bft) S-SW 202 17,4 C 21,4 C
29.07.2012 13:26 21,4 C 77 % 1009,6 hPa 0,0 l/m 3,6 km/h (1 Bft) S-SW 202 17,2 C 21,4 C
29.07.2012 13:31 21,3 C 77 % 1009,5 hPa 0,0 l/m 1,1 km/h (1 Bft) S-SW 202 17,1 C 21,3 C
29.07.2012 13:36 21,2 C 78 % 1009,6 hPa 0,0 l/m 0,0 km/h (0 Bft) S-SW 202 17,2 C 21,2 C
29.07.2012 13:41 21,1 C 79 % 1009,7 hPa 0,5 l/m 1,1 km/h (1 Bft) S 180 17,3 C 21,1 C
29.07.2012 13:46 20,9 C 80 % 1009,7 hPa 0,0 l/m 0,0 km/h (0 Bft) SW 225 17,3 C 20,9 C
29.07.2012 13:51 20,6 C 80 % 1009,8 hPa 0,5 l/m 4,0 km/h (1 Bft) S-SW 202 17,0 C 20,6 C
29.07.2012 13:56 20,4 C 82 % 1009,8 hPa 0,0 l/m 1,4 km/h (1 Bft) S-SW 202 17,2 C 20,4 C
29.07.2012 14:01 20,4 C 82 % 1009,8 hPa 0,0 l/m 1,1 km/h (1 Bft) S-SW 202 17,2 C 20,4 C
29.07.2012 14:06 20,3 C 83 % 1009,9 hPa 0,5 l/m 3,6 km/h (1 Bft) SW 225 17,3 C 20,3 C
29.07.2012 14:11 20,2 C 83 % 1009,8 hPa 1,0 l/m 7,9 km/h (2 Bft) W-SW 247 17,2 C 20,2 C
29.07.2012 14:16 19,9 C 84 % 1009,8 hPa 0,5 l/m 11,2 km/h (2 Bft) W 270 17,1 C 19,9 C
29.07.2012 14:21 19,8 C 84 % 1009,8 hPa 0,0 l/m 10,1 km/h (2 Bft) W-SW 247 17,0 C 19,8 C
29.07.2012 14:26 19,6 C 85 % 1009,8 hPa 0,0 l/m 6,8 km/h (2 Bft) W-NW 292 17,0 C 19,6 C
29.07.2012 14:31 19,6 C 85 % 1009,9 hPa 0,0 l/m 8,6 km/h (2 Bft) W 270 17,0 C 19,6 C
29.07.2012 14:36 19,4 C 84 % 1009,9 hPa 0,0 l/m 9,4 km/h (2 Bft) W 270 16,6 C 19,4 C
29.07.2012 14:41 19,4 C 85 % 1010,1 hPa 0,0 l/m 14,0 km/h (3 Bft) W-NW 292 16,8 C 19,4 C
29.07.2012 14:46 19,3 C 84 % 1010,3 hPa 0,0 l/m 15,5 km/h (3 Bft) NW 315 16,5 C 19,3 C
29.07.2012 14:51 19,3 C 84 % 1010,3 hPa 0,0 l/m 13,0 km/h (3 Bft) W-NW 292 16,5 C 19,3 C
29.07.2012 14:56 19,2 C 84 % 1010,2 hPa 0,0 l/m 19,1 km/h (3 Bft) W-NW 292 16,4 C 19,2 C
29.07.2012 15:01 19,1 C 85 % 1010,2 hPa 0,0 l/m 5,0 km/h (1 Bft) W-NW 292 16,5 C 19,1 C
29.07.2012 15:06 19,3 C 85 % 1010,3 hPa 0,0 l/m 11,9 km/h (2 Bft) NW 315 16,7 C 19,3 C
29.07.2012 15:11 19,3 C 85 % 1010,3 hPa 0,0 l/m 9,7 km/h (2 Bft) NW 315 16,7 C 19,3 C
29.07.2012 15:16 19,3 C 85 % 1010,6 hPa 0,0 l/m 10,4 km/h (2 Bft) NW 315 16,7 C 19,3 C
29.07.2012 15:21 19,3 C 85 % 1010,7 hPa 0,0 l/m 3,6 km/h (1 Bft) W-SW 247 16,7 C 19,3 C
29.07.2012 15:26 19,4 C 85 % 1010,8 hPa 0,0 l/m 5,8 km/h (2 Bft) W-NW 292 16,8 C 19,4 C
29.07.2012 15:31 19,4 C 84 % 1010,8 hPa 0,0 l/m 5,0 km/h (1 Bft) W-SW 247 16,6 C 19,4 C
29.07.2012 15:36 19,5 C 84 % 1010,8 hPa 0,0 l/m 5,4 km/h (1 Bft) W-NW 292 16,7 C 19,5 C
29.07.2012 15:41 19,6 C 85 % 1010,9 hPa 0,0 l/m 11,9 km/h (2 Bft) W-NW 292 17,0 C 19,6 C
29.07.2012 15:46 19,6 C 84 % 1010,9 hPa 0,0 l/m 8,6 km/h (2 Bft) W 270 16,8 C 19,6 C
29.07.2012 15:51 19,6 C 83 % 1010,9 hPa 0,0 l/m 7,6 km/h (2 Bft) W 270 16,6 C 19,6 C
29.07.2012 15:56 19,8 C 83 % 1010,9 hPa 0,0 l/m 9,4 km/h (2 Bft) W 270 16,8 C 19,8 C
29.07.2012 16:01 19,9 C 82 % 1010,9 hPa 0,0 l/m 4,7 km/h (1 Bft) W 270 16,7 C 19,9 C
29.07.2012 16:06 20,2 C 82 % 1010,9 hPa 0,0 l/m 3,2 km/h (1 Bft) W-NW 292 17,0 C 20,2 C
29.07.2012 16:11 20,4 C 81 % 1011,2 hPa 0,0 l/m 3,6 km/h (1 Bft) W-NW 292 17,0 C 20,4 C
29.07.2012 16:16 20,6 C 80 % 1011,0 hPa 0,0 l/m 13,7 km/h (3 Bft) W-NW 292 17,0 C 20,6 C
29.07.2012 16:21 21,1 C 79 % 1011,0 hPa 0,0 l/m 2,5 km/h (1 Bft) W-SW 247 17,3 C 21,1 C
29.07.2012 16:26 21,8 C 78 % 1011,1 hPa 0,0 l/m 7,6 km/h (2 Bft) W 270 17,8 C 21,8 C
29.07.2012 16:31 21,9 C 74 % 1011,1 hPa 0,0 l/m 8,6 km/h (2 Bft) NW 315 17,0 C 21,9 C
29.07.2012 16:36 21,8 C 74 % 1011,0 hPa 0,0 l/m 5,0 km/h (1 Bft) W-SW 247 17,0 C 21,8 C
29.07.2012 16:41 21,9 C 73 % 1011,1 hPa 0,0 l/m 2,5 km/h (1 Bft) W 270 16,8 C 21,9 C
_ Min-Zeit 06:41 16:41 08:56 - 00:21 - - 06:41 06:41
Minimum _ 15,9 C 73 % 1009,2 hPa - 0,0 km/h (0 Bft) - - 13,2 C 15,9 C
_ Max-Zeit 16:31 06:16 16:11 14:11 14:56 - - 16:26 16:31
Maximum _ 21,9 C 88 % 1011,2 hPa 1,0 l/m 19,1 km/h
W-NW (3 Bft)
- - 17,8 C 21,9 C
Durchschnitt _ 18,6 C 82 % 1009,8 hPa #4,7 l/m 3,8 km/h (1 Bft) O-NO - 15,5 C 18,6 C
(c) by David Heller